Accueil
METAR-TAF:

METAR-TAF

Aéroports :

Cologne, Allemagne

Aéroport Cologne/Bonn

latitude: 50-52N, longitude: 007-10E, altitude: 91 m

Observation

Le bulletin a été fait il y a 9 minutes, à 22:50 UTC
Vent 1 kt de direction variable
Température 12°C
Humidité 94%
Pression 1024 hPa
Visibilité 10 km ou plus
Quelques nuages à une hauteur de 4000 ft
Nuages fragmentés à une hauteur de 6500 ft

METAR: EDDK 202250Z VRB01KT 9999 FEW040 BKN065 12/11 Q1024 NOSIG

Heure: 00:59 (22:59 UTC)

Prévision

Le bulletin a été fait il y a 5 heures et 59 minutes, à 17:00 UTC
Prévision valable du 20 à 18 UTC au 21 à 24 UTC
Vent 7 kt de ouest
Visibilité 10 km ou plus
Quelques nuages à une hauteur de 4000 ft
Evoluant progressivement
du 20 à 18 UTC au 20 à 21 UTC
Vent 3 kt de direction variable

TAF: EDDK 201700Z 2018/2124 28007KT 9999 FEW040 BECMG 2018/2021 VRB03KT

Observations et prévisions météorologiques de plus de 4000 aéroports (messages METAR et TAF).

Les stations disponibles sont représentées par des disques jaunes et rouges sur la carte.

Passer la souris dessus pour voir le nom de la station.

Cliquer dessus pour voir les observations et prévisions météorologiques.

Pour changer de carte: cliquez sur les boutons verts avec une croix noire pour zoomer, sur le bouton vert avec un tiret pour effectuer un zoom arrière, ou sur les flèches vertes pour les cartes adjacentes.


METAR-TAF: